createdAt,value
2022-12-14T00:01:26.735Z,2.08
2022-12-14T00:04:02.430Z,2.33
2022-12-14T00:06:35.031Z,1.42
2022-12-14T00:09:05.442Z,1.95
2022-12-14T00:11:38.597Z,2.72
2022-12-14T00:14:07.899Z,1.80
2022-12-14T00:16:36.189Z,1.65
2022-12-14T00:19:08.132Z,1.95
2022-12-14T00:21:36.427Z,2.13
2022-12-14T00:24:06.817Z,2.20
2022-12-14T00:26:37.339Z,2.00
2022-12-14T00:29:04.926Z,2.13
2022-12-14T00:31:32.769Z,2.17
2022-12-14T00:34:04.345Z,0.85
2022-12-14T00:36:33.698Z,1.90
2022-12-14T00:39:01.241Z,1.10
2022-12-14T00:41:28.813Z,1.05
2022-12-14T00:43:56.340Z,0.88
2022-12-14T00:46:23.991Z,1.08
2022-12-14T00:48:55.182Z,2.40
2022-12-14T00:51:23.364Z,2.38
2022-12-14T00:53:52.619Z,1.10
2022-12-14T00:56:22.792Z,1.45
2022-12-14T00:58:53.985Z,0.65
2022-12-14T01:01:24.752Z,1.00
2022-12-14T01:04:12.821Z,0.82
2022-12-14T01:06:46.969Z,0.73
2022-12-14T01:09:18.402Z,1.05
2022-12-14T01:11:53.587Z,0.77
2022-12-14T01:14:26.208Z,1.48
2022-12-14T01:16:53.954Z,2.17
2022-12-14T01:19:28.035Z,1.52
2022-12-14T01:21:58.392Z,1.23
2022-12-14T01:24:31.640Z,0.95
2022-12-14T01:27:02.650Z,1.27
2022-12-14T01:29:33.013Z,1.33
2022-12-14T01:32:06.214Z,1.90
2022-12-14T01:34:34.006Z,0.68
2022-12-14T01:37:01.762Z,1.10
2022-12-14T01:39:32.404Z,1.42
2022-12-14T01:42:00.091Z,1.48
2022-12-14T01:44:27.666Z,2.13
2022-12-14T01:47:28.126Z,1.77
2022-12-14T01:50:06.206Z,0.80
2022-12-14T01:52:43.669Z,1.83
2022-12-14T01:55:15.119Z,1.02
2022-12-14T01:57:57.359Z,0.98
2022-12-14T02:00:30.267Z,1.52
2022-12-14T02:03:11.441Z,0.83
2022-12-14T02:05:48.816Z,0.52
2022-12-14T02:08:26.673Z,0.95
2022-12-14T02:10:57.401Z,1.23
2022-12-14T02:13:45.807Z,1.33
2022-12-14T02:16:17.147Z,1.00
2022-12-14T02:18:47.233Z,1.00
2022-12-14T02:21:25.794Z,1.10
2022-12-14T02:24:21.347Z,0.95
2022-12-14T02:27:07.552Z,0.98
2022-12-14T02:30:00.764Z,1.10
2022-12-14T02:33:06.841Z,1.83
2022-12-14T02:35:58.132Z,1.88
2022-12-14T02:38:45.566Z,0.82
2022-12-14T02:41:16.695Z,0.95
2022-12-14T02:43:53.038Z,1.58
2022-12-14T02:46:27.442Z,1.10
2022-12-14T02:49:12.872Z,1.00
2022-12-14T02:52:20.767Z,1.23
2022-12-14T02:55:18.284Z,0.73
2022-12-14T02:58:04.395Z,0.82
2022-12-14T03:00:35.502Z,1.50
2022-12-14T03:03:13.280Z,1.13
2022-12-14T03:05:41.081Z,1.00
2022-12-14T03:08:17.538Z,1.55
2022-12-14T03:11:05.230Z,1.25
2022-12-14T03:13:49.115Z,0.50
2022-12-14T03:16:29.940Z,0.40
2022-12-14T03:19:07.616Z,0.88
2022-12-14T03:21:39.832Z,1.48
2022-12-14T03:24:15.197Z,1.00
2022-12-14T03:27:25.334Z,1.52
2022-12-14T03:29:56.383Z,1.75
2022-12-14T03:32:34.038Z,1.05
2022-12-14T03:35:04.701Z,0.80
2022-12-14T03:37:39.888Z,1.33
2022-12-14T03:40:12.718Z,1.60
2022-12-14T03:42:58.163Z,1.08
2022-12-14T03:45:47.801Z,1.17
2022-12-14T03:48:39.347Z,0.60
2022-12-14T03:51:19.959Z,0.85
2022-12-14T03:53:56.379Z,1.20
2022-12-14T03:56:38.667Z,1.15
2022-12-14T03:59:15.279Z,0.93
2022-12-14T04:01:53.735Z,0.47
2022-12-14T04:04:30.585Z,0.77
2022-12-14T04:07:07.406Z,1.10
2022-12-14T04:09:43.284Z,0.70
2022-12-14T04:15:53.106Z,0.90
2022-12-14T04:18:59.539Z,0.52
2022-12-14T04:21:42.625Z,1.27
2022-12-14T04:24:37.750Z,0.60
2022-12-14T04:27:18.561Z,1.25
2022-12-14T04:29:58.526Z,0.95
2022-12-14T04:32:32.103Z,1.15
2022-12-14T04:35:09.524Z,1.10
2022-12-14T04:37:40.314Z,0.73
2022-12-14T04:40:19.156Z,1.58
2022-12-14T04:42:53.115Z,1.65
2022-12-14T04:45:27.334Z,1.08
2022-12-14T04:48:03.101Z,0.80
2022-12-14T04:50:34.978Z,2.13
2022-12-14T04:53:16.776Z,1.30
2022-12-14T04:56:09.043Z,1.40
2022-12-14T04:58:37.518Z,0.77
2022-12-14T05:01:24.183Z,4.15
2022-12-14T05:04:12.130Z,3.03
2022-12-14T05:06:48.549Z,2.35
2022-12-14T05:09:27.489Z,1.38
2022-12-14T05:12:20.334Z,1.48
2022-12-14T05:15:27.345Z,1.60
2022-12-14T05:17:56.175Z,0.70
2022-12-14T05:20:24.976Z,2.10
2022-12-14T05:22:55.261Z,2.00
2022-12-14T05:25:22.954Z,1.67
2022-12-14T05:27:50.658Z,1.33
2022-12-14T05:30:18.332Z,1.75
2022-12-14T05:32:45.996Z,1.77
2022-12-14T05:35:14.487Z,1.38
2022-12-14T05:37:42.693Z,1.95
2022-12-14T05:40:11.397Z,1.27
2022-12-14T05:42:44.765Z,1.77
2022-12-14T05:45:15.295Z,2.22
2022-12-14T05:47:43.140Z,3.20
2022-12-14T05:50:11.267Z,1.65
2022-12-14T05:52:42.106Z,1.52
2022-12-14T05:55:10.042Z,2.13
2022-12-14T05:57:37.572Z,1.45
2022-12-14T06:00:06.545Z,1.48
2022-12-14T06:02:34.093Z,2.88
2022-12-14T06:05:01.577Z,9.77
2022-12-14T06:07:29.135Z,5.93
2022-12-14T06:09:56.947Z,4.32
2022-12-14T06:12:24.611Z,1.77
2022-12-14T06:14:52.174Z,1.80
2022-12-14T06:17:19.735Z,1.63
2022-12-14T06:19:49.947Z,2.05
2022-12-14T06:22:19.043Z,2.20
2022-12-14T06:24:46.683Z,2.00
2022-12-14T06:27:14.328Z,2.40
2022-12-14T06:29:41.968Z,2.08
2022-12-14T06:32:09.511Z,1.77
2022-12-14T06:34:40.625Z,1.38
2022-12-14T06:37:09.754Z,1.95
2022-12-14T06:39:37.795Z,1.70
2022-12-14T06:42:06.276Z,2.53
2022-12-14T06:44:33.956Z,2.15
2022-12-14T06:47:01.528Z,2.17
2022-12-14T06:49:29.217Z,2.05
2022-12-14T06:51:56.727Z,2.00
2022-12-14T06:54:24.664Z,2.10
2022-12-14T06:56:52.346Z,2.22
2022-12-14T06:59:20.231Z,2.05
2022-12-14T07:01:49.972Z,1.33
2022-12-14T07:04:21.081Z,2.13
2022-12-14T07:06:51.335Z,3.17
2022-12-14T07:09:21.681Z,6.32
2022-12-14T07:11:51.562Z,3.97
2022-12-14T07:14:21.825Z,3.17
2022-12-14T07:16:55.722Z,2.10
2022-12-14T07:19:23.910Z,3.15
2022-12-14T07:21:51.742Z,2.80
2022-12-14T07:24:19.504Z,2.67
2022-12-14T07:26:47.254Z,1.83
2022-12-14T07:29:16.958Z,1.33
2022-12-14T07:31:44.563Z,2.05
2022-12-14T07:34:23.449Z,1.58
2022-12-14T07:36:52.444Z,1.67
2022-12-14T07:39:21.746Z,1.33
2022-12-14T07:41:50.745Z,3.03
2022-12-14T07:44:23.809Z,2.47
2022-12-14T07:46:52.927Z,2.83
2022-12-14T07:49:23.774Z,2.85
2022-12-14T07:51:53.135Z,2.42
2022-12-14T07:54:21.624Z,2.00
2022-12-14T07:56:49.751Z,2.55
2022-12-14T07:59:19.509Z,2.13
2022-12-14T08:01:47.459Z,1.40
2022-12-14T08:04:18.529Z,2.45
2022-12-14T08:06:47.714Z,2.33
2022-12-14T08:09:16.845Z,2.50
2022-12-14T08:11:44.600Z,2.33
2022-12-14T08:14:17.413Z,2.38
2022-12-14T08:16:46.527Z,3.42
2022-12-14T08:19:14.980Z,2.80
2022-12-14T08:21:42.959Z,2.30
2022-12-14T08:24:12.572Z,4.78
2022-12-14T08:26:40.256Z,3.78
2022-12-14T08:29:09.358Z,4.15
2022-12-14T08:31:36.888Z,2.70
2022-12-14T08:34:05.238Z,1.40
2022-12-14T08:36:34.586Z,2.38
2022-12-14T08:39:05.540Z,2.17
2022-12-14T08:41:33.225Z,2.33
2022-12-14T08:44:03.094Z,3.45
2022-12-14T08:46:32.003Z,4.25
2022-12-14T08:49:00.279Z,5.55
2022-12-14T08:51:29.053Z,3.53
2022-12-14T08:53:58.241Z,2.30
2022-12-14T08:56:27.838Z,1.90
2022-12-14T08:58:56.763Z,2.47
2022-12-14T09:01:34.831Z,1.85
2022-12-14T09:04:05.535Z,1.98
2022-12-14T09:06:39.977Z,2.38
2022-12-14T09:09:15.610Z,2.60
2022-12-14T09:11:45.025Z,2.72
2022-12-14T09:14:12.721Z,2.45
2022-12-14T09:16:43.588Z,3.17
2022-12-14T09:19:11.633Z,1.58
2022-12-14T09:21:53.324Z,1.52
2022-12-14T09:24:28.619Z,1.75
2022-12-14T09:27:02.276Z,1.13
2022-12-14T09:29:33.570Z,1.63
2022-12-14T09:32:08.638Z,1.30
2022-12-14T09:34:38.008Z,1.90
2022-12-14T09:37:13.026Z,1.40
2022-12-14T09:39:43.409Z,1.45
2022-12-14T09:42:50.535Z,1.90
2022-12-14T09:45:43.356Z,1.00
2022-12-14T09:48:21.357Z,1.75
2022-12-14T09:50:51.271Z,1.58
2022-12-14T09:53:21.201Z,1.77
2022-12-14T09:55:57.058Z,2.28
2022-12-14T09:58:35.070Z,2.58
2022-12-14T10:01:24.405Z,5.05
2022-12-14T10:04:05.068Z,2.97
2022-12-14T10:06:52.788Z,2.45
2022-12-14T10:09:32.702Z,3.10
2022-12-14T10:12:19.082Z,2.47
2022-12-14T10:17:56.739Z,1.63
2022-12-14T10:20:57.724Z,1.88
2022-12-14T10:23:26.791Z,1.88
2022-12-14T10:25:59.210Z,2.00
2022-12-14T10:28:59.252Z,1.75
2022-12-14T10:31:58.053Z,2.70
2022-12-14T10:34:31.138Z,1.92
2022-12-14T10:37:07.068Z,1.85
2022-12-14T10:42:08.029Z,1.58
2022-12-14T10:48:11.528Z,2.92
2022-12-14T10:51:05.147Z,3.58
2022-12-14T10:53:53.647Z,2.40
2022-12-14T10:56:30.211Z,4.30
2022-12-14T10:59:16.557Z,2.33
2022-12-14T11:01:55.225Z,2.13
2022-12-14T11:04:47.912Z,2.22
2022-12-14T11:07:17.152Z,2.15
2022-12-14T11:09:45.481Z,1.80
2022-12-14T11:12:13.207Z,1.77
2022-12-14T11:15:00.005Z,3.78
2022-12-14T11:17:43.293Z,1.33
2022-12-14T11:20:23.025Z,2.47
2022-12-14T11:22:56.955Z,2.50
2022-12-14T11:25:35.422Z,2.20
2022-12-14T11:28:38.357Z,1.92
2022-12-14T11:31:22.305Z,2.03
2022-12-14T11:33:50.746Z,2.67
2022-12-14T11:36:44.260Z,1.95
2022-12-14T11:39:14.870Z,2.05
2022-12-14T11:41:50.261Z,2.42
2022-12-14T11:44:22.806Z,2.60
2022-12-14T11:47:02.132Z,2.05
2022-12-14T11:49:45.051Z,1.90
2022-12-14T11:52:17.279Z,1.48
2022-12-14T11:54:49.556Z,1.95
2022-12-14T11:57:44.223Z,1.90
2022-12-14T12:00:23.554Z,1.95
2022-12-14T12:03:01.914Z,1.30
2022-12-14T12:05:36.751Z,2.67
2022-12-14T12:08:07.422Z,1.40
2022-12-14T12:10:49.932Z,1.60
2022-12-14T12:13:37.216Z,1.85
2022-12-14T12:16:14.863Z,2.92
2022-12-14T12:19:11.606Z,1.70
2022-12-14T12:21:45.213Z,1.70
2022-12-14T12:24:29.628Z,1.88
2022-12-14T12:27:00.101Z,2.38
2022-12-14T12:29:53.376Z,2.17
2022-12-14T12:32:29.106Z,1.95
2022-12-14T12:35:11.524Z,1.75
2022-12-14T12:38:00.753Z,1.52
2022-12-14T12:40:35.519Z,2.17
2022-12-14T12:43:20.393Z,1.80
2022-12-14T12:45:59.080Z,1.40
2022-12-14T12:48:39.851Z,1.20
2022-12-14T12:51:16.084Z,3.25
2022-12-14T12:53:51.956Z,5.25
2022-12-14T12:59:19.238Z,4.72
2022-12-14T13:01:50.632Z,2.47
2022-12-14T13:04:40.697Z,2.55
2022-12-14T13:07:36.801Z,3.08
2022-12-14T13:10:07.139Z,3.17
2022-12-14T13:12:47.881Z,4.90
2022-12-14T13:15:25.791Z,3.10
2022-12-14T13:18:12.380Z,1.65
2022-12-14T13:20:40.026Z,1.33
2022-12-14T13:23:43.061Z,1.33
2022-12-14T13:26:05.022Z,1.20
2022-12-14T13:28:50.698Z,1.83
2022-12-14T13:31:40.618Z,1.75
2022-12-14T13:35:03.798Z,0.93
2022-12-14T13:46:49.340Z,2.60
2022-12-14T13:49:36.295Z,1.55
2022-12-14T13:52:29.377Z,1.15
2022-12-14T13:54:57.499Z,1.50
2022-12-14T13:57:26.225Z,2.55
2022-12-14T13:59:58.793Z,1.85
2022-12-14T14:02:33.561Z,1.48
2022-12-14T14:05:24.462Z,2.35
2022-12-14T14:08:06.807Z,7.43
2022-12-14T14:10:43.270Z,2.50
2022-12-14T14:13:44.099Z,2.25
2022-12-14T14:16:36.352Z,2.38
2022-12-14T14:19:15.248Z,3.35
2022-12-14T14:25:01.457Z,2.20
2022-12-14T14:27:55.555Z,2.88
2022-12-14T14:30:28.936Z,3.13
2022-12-14T14:33:19.947Z,1.67
2022-12-14T14:35:55.032Z,2.28
2022-12-14T14:38:32.068Z,2.50
2022-12-14T14:41:18.851Z,6.22
2022-12-14T14:44:01.281Z,3.67
2022-12-14T14:46:41.230Z,1.90
2022-12-14T14:49:47.877Z,1.23
2022-12-14T14:52:47.492Z,1.75
2022-12-14T14:55:54.061Z,2.33
2022-12-14T14:58:44.754Z,2.08
2022-12-14T15:01:20.901Z,2.30
2022-12-14T15:03:59.627Z,4.15
2022-12-14T15:06:37.558Z,2.13
2022-12-14T15:09:30.956Z,2.60
2022-12-14T15:12:18.821Z,3.03
2022-12-14T15:14:56.040Z,3.03
2022-12-14T15:17:25.538Z,3.20
2022-12-14T15:20:09.164Z,3.50
2022-12-14T15:22:44.348Z,6.60
2022-12-14T15:25:24.431Z,8.75
2022-12-14T15:28:43.362Z,8.93
2022-12-14T15:32:33.398Z,6.90
2022-12-14T15:35:09.405Z,6.50
2022-12-14T15:37:43.675Z,5.55
2022-12-14T15:40:15.296Z,4.13
2022-12-14T15:42:52.873Z,3.22
2022-12-14T15:45:35.322Z,3.78
2022-12-14T15:48:23.298Z,3.60
2022-12-14T15:51:06.438Z,1.50
2022-12-14T15:53:40.982Z,1.92
2022-12-14T15:56:29.687Z,2.72
2022-12-14T15:59:02.800Z,1.77
2022-12-14T16:01:39.467Z,2.53
2022-12-14T16:04:13.915Z,3.28
2022-12-14T16:06:51.790Z,2.15
2022-12-14T16:09:33.793Z,1.77
2022-12-14T16:12:15.751Z,2.25
2022-12-14T16:14:57.601Z,2.38
2022-12-14T16:17:40.534Z,1.23
2022-12-14T16:20:10.058Z,1.65
2022-12-14T16:22:41.684Z,4.15
2022-12-14T16:25:09.535Z,3.28
2022-12-14T16:27:44.375Z,2.72
2022-12-14T16:30:55.350Z,2.38
2022-12-14T16:33:27.859Z,1.98
2022-12-14T16:36:06.389Z,2.53
2022-12-14T16:38:53.598Z,2.35
2022-12-14T16:41:38.340Z,2.50
2022-12-14T16:44:21.074Z,2.83
2022-12-14T16:50:56.610Z,2.40
2022-12-14T16:54:03.514Z,4.43
2022-12-14T16:57:19.911Z,3.88
2022-12-14T16:59:59.052Z,4.25
2022-12-14T17:02:42.833Z,3.65
2022-12-14T17:05:18.014Z,3.35
2022-12-14T17:07:59.156Z,4.80
2022-12-14T17:10:30.732Z,3.22
2022-12-14T17:13:00.567Z,3.00
2022-12-14T17:15:31.378Z,4.32
2022-12-14T17:18:01.265Z,5.55
2022-12-14T17:20:37.106Z,4.63
2022-12-14T17:23:09.567Z,4.90
2022-12-14T17:25:37.254Z,2.95
2022-12-14T17:28:18.590Z,3.38
2022-12-14T17:30:46.833Z,2.80
2022-12-14T17:33:29.403Z,2.40
2022-12-14T17:36:16.831Z,2.53
2022-12-14T17:38:44.819Z,2.45
2022-12-14T17:41:25.921Z,2.25
2022-12-14T17:43:57.777Z,1.88
2022-12-14T17:46:25.589Z,1.88
2022-12-14T17:48:53.568Z,1.92
2022-12-14T17:51:30.079Z,2.85
2022-12-14T17:53:59.500Z,2.60
2022-12-14T17:56:28.347Z,2.42
2022-12-14T17:58:55.934Z,2.05
2022-12-14T18:01:25.314Z,1.85
2022-12-14T18:03:52.979Z,4.53
2022-12-14T18:06:20.684Z,2.78
2022-12-14T18:08:51.445Z,3.35
2022-12-14T18:11:24.544Z,2.88
2022-12-14T18:13:52.421Z,2.55
2022-12-14T18:16:22.966Z,2.05
2022-12-14T18:18:51.585Z,2.35
2022-12-14T18:21:28.141Z,2.53
2022-12-14T18:23:56.557Z,3.38
2022-12-14T18:26:24.405Z,3.03
2022-12-14T18:28:54.177Z,3.10
2022-12-14T18:31:33.580Z,4.03
2022-12-14T18:34:01.650Z,1.50
2022-12-14T18:36:29.287Z,2.63
2022-12-14T18:38:57.346Z,3.17
2022-12-14T18:41:26.208Z,2.83
2022-12-14T18:43:55.746Z,2.22
2022-12-14T18:46:23.967Z,3.85
2022-12-14T18:48:51.633Z,2.03
2022-12-14T18:51:26.723Z,3.42
2022-12-14T18:53:56.788Z,3.23
2022-12-14T18:56:25.503Z,3.40
2022-12-14T18:58:53.509Z,2.72
2022-12-14T19:01:24.997Z,3.33
2022-12-14T19:03:53.065Z,3.20
2022-12-14T19:09:10.971Z,3.90
2022-12-14T19:11:41.885Z,3.97
2022-12-14T19:14:10.496Z,2.45
2022-12-14T19:16:38.253Z,3.13
2022-12-14T19:19:05.911Z,2.60
2022-12-14T19:21:33.421Z,2.30
2022-12-14T19:24:01.048Z,4.40
2022-12-14T19:26:29.397Z,2.85
2022-12-14T19:28:57.072Z,2.13
2022-12-14T19:31:24.711Z,3.45
2022-12-14T19:33:53.740Z,3.75
2022-12-14T19:36:21.325Z,2.58
2022-12-14T19:38:49.585Z,3.47
2022-12-14T19:41:20.562Z,3.67
2022-12-14T19:43:49.253Z,3.45
2022-12-14T19:46:18.160Z,3.33
2022-12-14T19:48:46.778Z,3.45
2022-12-14T19:51:14.428Z,3.08
2022-12-14T19:53:43.499Z,2.40
2022-12-14T19:56:14.041Z,1.88
2022-12-14T19:58:41.593Z,3.35
2022-12-14T20:01:11.569Z,2.80
2022-12-14T20:03:39.749Z,2.35
2022-12-14T20:06:08.114Z,1.75
2022-12-14T20:08:37.045Z,2.40
2022-12-14T20:11:06.796Z,1.48
2022-12-14T20:13:34.901Z,2.40
2022-12-14T20:16:02.959Z,1.90
2022-12-14T20:18:32.828Z,2.58
2022-12-14T20:21:05.149Z,2.35
2022-12-14T20:23:35.390Z,2.58
2022-12-14T20:26:05.935Z,2.60
2022-12-14T20:28:33.830Z,2.28
2022-12-14T20:31:04.725Z,2.17
2022-12-14T20:33:33.875Z,2.10
2022-12-14T20:36:02.152Z,3.08
2022-12-14T20:38:32.591Z,7.75
2022-12-14T20:41:08.485Z,3.45
2022-12-14T20:43:38.155Z,3.47
2022-12-14T20:46:34.086Z,2.88
2022-12-14T20:49:04.496Z,2.20
2022-12-14T20:51:34.207Z,3.22
2022-12-14T20:54:06.046Z,2.13
2022-12-14T20:56:38.154Z,2.47
2022-12-14T20:59:10.851Z,3.40
2022-12-14T21:01:40.624Z,2.88
2022-12-14T21:04:09.490Z,3.20
2022-12-14T21:06:40.901Z,2.80
2022-12-14T21:09:10.291Z,2.55
2022-12-14T21:12:05.326Z,2.70
2022-12-14T21:14:35.581Z,2.90
2022-12-14T21:17:04.096Z,2.70
2022-12-14T21:19:32.875Z,3.03
2022-12-14T21:22:00.450Z,5.05
2022-12-14T21:25:00.915Z,2.47
2022-12-14T21:27:19.520Z,2.55
2022-12-14T21:29:48.047Z,3.17
2022-12-14T21:32:16.649Z,1.13
2022-12-14T21:34:45.264Z,2.45
2022-12-14T21:37:13.768Z,2.20
2022-12-14T21:39:41.685Z,1.83
2022-12-14T21:42:13.167Z,3.28
2022-12-14T21:44:46.487Z,2.88
2022-12-14T21:47:17.383Z,1.63
2022-12-14T21:49:46.285Z,2.83
2022-12-14T21:52:19.603Z,3.08
2022-12-14T21:54:50.942Z,2.92
2022-12-14T21:57:49.932Z,1.67
2022-12-14T22:00:19.668Z,2.60
2022-12-14T22:02:47.391Z,2.58
2022-12-14T22:05:15.723Z,2.22
2022-12-14T22:08:02.266Z,2.40
2022-12-14T22:10:29.837Z,2.97
2022-12-14T22:12:57.321Z,2.38
2022-12-14T22:15:24.848Z,1.70
2022-12-14T22:17:52.331Z,3.30
2022-12-14T22:20:20.106Z,2.67
2022-12-14T22:22:47.656Z,2.90
2022-12-14T22:25:15.549Z,2.70
2022-12-14T22:27:43.082Z,2.58
2022-12-14T22:30:18.207Z,2.72
2022-12-14T22:32:45.973Z,1.88
2022-12-14T22:35:13.770Z,1.67
2022-12-14T22:37:41.242Z,3.15
2022-12-14T22:40:09.342Z,2.72
2022-12-14T22:42:36.854Z,3.60
2022-12-14T22:45:04.881Z,1.52
2022-12-14T22:47:32.425Z,1.35
2022-12-14T22:50:00.009Z,3.35
2022-12-14T22:52:27.674Z,2.65
2022-12-14T22:54:55.277Z,1.85
2022-12-14T22:57:23.288Z,2.83
2022-12-14T23:00:02.516Z,1.63
2022-12-14T23:02:30.978Z,3.08
2022-12-14T23:04:59.253Z,2.85
2022-12-14T23:07:26.802Z,2.60
2022-12-14T23:10:12.873Z,2.92
2022-12-14T23:12:59.049Z,1.88
2022-12-14T23:15:44.888Z,3.40
2022-12-14T23:18:31.242Z,2.20
2022-12-14T23:21:18.149Z,2.00
2022-12-14T23:24:04.995Z,1.88
2022-12-14T23:26:52.039Z,3.05
2022-12-14T23:29:38.247Z,3.28
2022-12-14T23:32:24.701Z,2.70
2022-12-14T23:37:57.356Z,2.17
2022-12-14T23:43:35.372Z,1.42
2022-12-14T23:46:25.329Z,1.40
2022-12-14T23:49:15.759Z,3.78
2022-12-14T23:52:03.048Z,2.80
2022-12-14T23:54:52.604Z,3.03
2022-12-14T23:57:54.283Z,2.88
